Time;durP1;ratioP1;P1;durP2;ratioP2;P2;SDS_P1;SDS_P2;PMS_P1;PMS_P2;Temp;Humidity;BMP_temperature;BMP_pressure;BME280_temperature;BME280_humidity;BME280_pressure;Samples;Min_cycle;Max_cycle;Signal;HPM_P1;HPM_P2
2021/07/25 00:00:06;;;;;;;;;3.75;2.25;;;;;23.42;44.61;100307.59;5103090;27;45499;-57
2021/07/25 00:02:33;;;;;;;;;2.75;2.50;;;;;23.41;44.66;100306.78;5103089;27;45329;-57
2021/07/25 00:04:59;;;;;;;;;4.75;2.75;;;;;23.34;44.80;100302.81;5102606;27;45489;-57
2021/07/25 00:07:24;;;;;;;;;4.25;3.00;;;;;23.32;44.97;100308.31;5084951;27;45209;-57
2021/07/25 00:09:50;;;;;;;;;4.50;3.00;;;;;23.33;44.91;100309.16;5086680;27;45319;-57
2021/07/25 00:12:15;;;;;;;;;4.75;3.00;;;;;23.27;45.14;100305.13;5102932;27;45919;-57
2021/07/25 00:14:41;;;;;;;;;3.25;3.25;;;;;23.26;44.87;100307.91;5102864;27;45208;-57
2021/07/25 00:17:06;;;;;;;;;2.00;2.00;;;;;23.25;45.16;100307.06;5102975;27;45218;-57
2021/07/25 00:19:32;;;;;;;;;2.00;2.00;;;;;23.20;45.29;100306.53;5102628;27;45400;-57
2021/07/25 00:21:57;;;;;;;;;2.00;2.00;;;;;23.11;45.43;100305.38;5102602;27;45361;-57
2021/07/25 00:24:29;;;;;;;;;2.00;2.00;;;;;23.11;45.67;100304.53;5102714;27;45296;-57
2021/07/25 00:26:57;;;;;;;;;3.00;3.00;;;;;23.09;45.06;100306.44;5102925;27;45481;-58
2021/07/25 00:29:22;;;;;;;;;3.00;3.00;;;;;23.07;45.42;100295.84;5101933;27;45384;-57
2021/07/25 00:31:48;;;;;;;;;2.75;2.75;;;;;23.07;45.63;100297.66;5102170;27;45312;-57
2021/07/25 00:34:14;;;;;;;;;2.00;2.00;;;;;23.00;45.57;100294.59;5102581;27;45238;-57
2021/07/25 00:36:39;;;;;;;;;3.75;2.00;;;;;22.99;45.49;100290.19;5101233;27;45430;-57
2021/07/25 00:39:10;;;;;;;;;2.75;2.00;;;;;22.98;45.43;100285.78;5084105;27;45434;-58
2021/07/25 00:41:36;;;;;;;;;3.00;3.00;;;;;22.96;45.45;100288.59;5102401;27;46630;-57
2021/07/25 00:44:02;;;;;;;;;2.00;2.00;;;;;22.94;45.47;100290.50;5102229;27;45165;-57
2021/07/25 00:46:28;;;;;;;;;2.00;2.00;;;;;22.90;45.67;100281.00;5067278;27;45285;-57
2021/07/25 00:48:54;;;;;;;;;2.00;2.00;;;;;22.91;45.65;100287.25;5102466;27;45508;-57
2021/07/25 00:51:20;;;;;;;;;2.00;2.00;;;;;22.84;45.95;100282.31;5101880;27;45437;-57
2021/07/25 00:53:47;;;;;;;;;2.25;1.00;;;;;22.81;45.91;100289.72;5102152;27;45348;-57
2021/07/25 00:56:13;;;;;;;;;4.50;2.25;;;;;22.77;46.02;100286.41;5102475;27;45327;-57
2021/07/25 00:58:40;;;;;;;;;1.50;1.00;;;;;22.74;46.24;100289.28;5066716;27;45502;-58
2021/07/25 01:01:07;;;;;;;;;4.00;2.25;;;;;22.71;46.44;100287.69;5102141;27;45430;-57
2021/07/25 01:04:07;;;;;;;;;2.00;2.00;;;;;22.71;45.91;100282.34;5080252;28;45236;-57
2021/07/25 01:07:02;;;;;;;;;2.75;2.00;;;;;22.62;46.34;100266.94;5098499;27;45303;-57
2021/07/25 01:09:43;;;;;;;;;2.50;2.50;;;;;22.66;45.95;100273.78;5086338;27;45671;-57
2021/07/25 01:12:24;;;;;;;;;4.50;4.50;;;;;22.62;46.39;100276.81;5101948;27;46195;-57
2021/07/25 01:14:52;;;;;;;;;2.25;2.00;;;;;22.55;46.34;100271.91;5101839;27;45501;-57
2021/07/25 01:17:30;;;;;;;;;2.50;2.50;;;;;22.53;46.41;100267.63;5080326;27;45385;-57
2021/07/25 01:20:02;;;;;;;;;2.00;2.00;;;;;22.48;46.23;100251.88;5088459;27;45455;-57
2021/07/25 01:22:29;;;;;;;;;3.00;1.00;;;;;22.45;46.41;100264.63;5101707;27;46057;-57
2021/07/25 01:24:55;;;;;;;;;2.25;2.00;;;;;22.45;46.54;100270.88;5101809;27;45425;-57
2021/07/25 01:27:48;;;;;;;;;4.00;2.25;;;;;22.40;46.84;100273.84;5101716;27;45328;-57
2021/07/25 01:30:17;;;;;;;;;1.75;1.75;;;;;22.38;47.03;100274.94;5077514;27;45363;-57
2021/07/25 01:32:44;;;;;;;;;4.50;2.00;;;;;22.34;46.39;100271.59;5101479;27;45366;-57
2021/07/25 01:35:13;;;;;;;;;2.00;2.00;;;;;22.33;46.56;100280.56;5101455;27;45331;-57
2021/07/25 01:37:38;;;;;;;;;1.25;1.25;;;;;22.33;46.53;100282.41;5101681;27;45283;-57
2021/07/25 01:40:11;;;;;;;;;3.75;3.25;;;;;22.32;47.15;100278.00;5101647;27;45283;-57
2021/07/25 01:42:36;;;;;;;;;4.00;2.50;;;;;22.29;46.89;100275.53;5101462;27;46423;-57
2021/07/25 01:45:03;;;;;;;;;2.00;2.00;;;;;22.26;47.30;100275.78;5101488;27;45251;-57
2021/07/25 01:47:29;;;;;;;;;2.00;2.00;;;;;;;;5101723;27;45150;-57
2021/07/25 01:49:55;;;;;;;;;2.50;2.50;;;;;22.29;47.23;100278.22;5100974;27;45487;-57
2021/07/25 01:52:20;;;;;;;;;3.00;3.00;;;;;22.27;47.34;100277.50;5082849;27;47613;-57
2021/07/25 01:54:45;;;;;;;;;2.50;2.25;;;;;22.24;47.28;100278.56;5101403;27;45407;-57
2021/07/25 01:57:11;;;;;;;;;1.25;1.25;;;;;22.22;47.44;100273.28;5083040;27;45407;-57
2021/07/25 01:59:36;;;;;;;;;4.75;3.50;;;;;22.16;47.17;100267.53;5101294;27;45278;-57
2021/07/25 02:02:01;;;;;;;;;3.00;2.00;;;;;22.20;47.31;100280.59;5101161;27;45598;-57
2021/07/25 02:04:27;;;;;;;;;6.00;4.00;;;;;22.22;47.25;100272.44;5101033;27;45381;-57
2021/07/25 02:06:52;;;;;;;;;2.75;2.75;;;;;22.22;47.15;100273.28;5101233;27;45320;-57
2021/07/25 02:09:17;;;;;;;;;3.50;3.00;;;;;22.20;47.14;100267.22;5101174;27;45343;-57
2021/07/25 02:11:43;;;;;;;;;2.75;2.00;;;;;22.19;47.58;100270.00;5100934;27;46155;-57
2021/07/25 02:14:09;;;;;;;;;3.00;3.00;;;;;22.16;47.46;100263.06;5101144;27;45315;-57
2021/07/25 02:16:36;;;;;;;;;3.00;3.00;;;;;22.14;47.65;100256.06;5083011;27;45259;-58
2021/07/25 02:19:02;;;;;;;;;4.00;3.25;;;;;22.16;47.45;100259.50;5100946;27;45314;-57
2021/07/25 02:21:27;;;;;;;;;4.50;3.00;;;;;22.13;47.72;100260.56;5100405;27;45327;-57
2021/07/25 02:23:53;;;;;;;;;3.00;3.00;;;;;22.09;48.06;100259.09;5079250;28;45259;-57
2021/07/25 02:26:19;;;;;;;;;4.00;3.50;;;;;22.08;48.14;100255.53;5087535;27;45306;-57
2021/07/25 02:28:44;;;;;;;;;4.00;3.25;;;;;22.04;48.36;100251.38;5100645;27;45629;-57
2021/07/25 02:31:10;;;;;;;;;5.00;3.00;;;;;22.07;47.90;100247.63;5100896;27;45403;-57
2021/07/25 02:33:35;;;;;;;;;3.25;2.50;;;;;22.06;48.30;100262.84;5100813;27;45316;-57
2021/07/25 02:36:01;;;;;;;;;2.00;2.00;;;;;22.02;48.06;100252.44;5100681;27;45312;-57
2021/07/25 02:38:26;;;;;;;;;4.25;4.00;;;;;22.02;48.01;100257.78;5100842;27;45536;-57
2021/07/25 02:40:51;;;;;;;;;4.75;4.00;;;;;22.01;48.12;100254.28;5100455;27;46151;-57
2021/07/25 02:43:17;;;;;;;;;3.00;3.00;;;;;22.02;48.53;100252.44;5100738;27;45302;-57
2021/07/25 02:45:42;;;;;;;;;3.00;3.00;;;;;22.02;48.59;100257.78;5100785;27;45291;-57
2021/07/25 02:48:07;;;;;;;;;3.00;3.00;;;;;22.00;48.44;100244.53;5100774;27;45370;-57
2021/07/25 02:50:33;;;;;;;;;3.25;3.00;;;;;21.99;48.38;100236.63;5100174;27;45272;-57
2021/07/25 02:52:58;;;;;;;;;3.00;3.00;;;;;21.95;47.98;100237.78;5101271;27;45404;-57
2021/07/25 02:55:23;;;;;;;;;3.00;2.50;;;;;21.95;48.55;100235.97;5104260;27;45234;-57
2021/07/25 02:57:49;;;;;;;;;3.25;3.25;;;;;21.97;48.18;100255.44;5104160;27;45395;-57
2021/07/25 03:00:14;;;;;;;;;3.00;3.00;;;;;21.95;48.45;100248.47;5082339;28;45333;-57
2021/07/25 03:02:40;;;;;;;;;5.00;5.00;;;;;21.92;48.48;100247.75;5096299;27;45306;-57
2021/07/25 03:05:06;;;;;;;;;3.00;3.00;;;;;21.90;48.58;100243.47;5084228;27;45295;-57
2021/07/25 03:07:32;;;;;;;;;6.25;4.00;;;;;21.86;48.61;100241.94;5104070;27;45498;-57
2021/07/25 03:09:57;;;;;;;;;4.00;3.00;;;;;21.86;49.05;100241.94;5103610;27;45890;-57
2021/07/25 03:12:22;;;;;;;;;4.00;4.00;;;;;21.85;48.63;100248.28;5103928;27;45208;-57
2021/07/25 03:14:48;;;;;;;;;3.00;3.00;;;;;21.83;49.05;100255.56;5103984;27;45225;-57
2021/07/25 03:17:13;;;;;;;;;5.00;4.50;;;;;21.80;49.14;100242.38;5103985;27;45394;-57
2021/07/25 03:19:38;;;;;;;;;2.75;2.75;;;;;21.72;49.08;100230.41;5103516;27;46042;-57
2021/07/25 03:22:04;;;;;;;;;4.50;3.75;;;;;21.72;49.40;100241.13;5103597;27;45270;-57
2021/07/25 03:24:31;;;;;;;;;3.25;3.25;;;;;21.71;48.76;100241.19;5103998;27;45409;-57
2021/07/25 03:26:56;;;;;;;;;7.75;5.00;;;;;21.68;49.17;100244.09;5103591;27;45682;-57
2021/07/25 03:29:22;;;;;;;;;4.00;3.00;;;;;21.64;49.47;100246.13;5103334;27;45294;-57
2021/07/25 03:31:47;;;;;;;;;5.00;4.00;;;;;21.55;49.31;100244.94;5103669;27;45413;-57
2021/07/25 03:34:12;;;;;;;;;4.00;4.00;;;;;21.52;49.58;100242.44;5103427;27;45248;-57
2021/07/25 03:36:38;;;;;;;;;5.00;4.00;;;;;21.47;49.68;100251.72;5103747;27;45286;-57
2021/07/25 03:39:10;;;;;;;;;3.75;3.75;;;;;21.42;50.11;100241.34;5103339;27;47345;-57
2021/07/25 03:41:35;;;;;;;;;6.00;4.00;;;;;21.43;49.58;100246.59;5103383;27;45307;-56
2021/07/25 03:44:00;;;;;;;;;3.50;2.00;;;;;21.42;49.39;100242.22;5084926;27;45329;-57
2021/07/25 03:46:25;;;;;;;;;5.00;4.00;;;;;21.35;49.66;100238.22;5103487;27;45336;-57
2021/07/25 03:48:51;;;;;;;;;4.75;3.00;;;;;21.36;49.42;100247.97;5103224;27;46052;-56
2021/07/25 03:51:16;;;;;;;;;4.00;4.00;;;;;21.32;49.76;100227.75;5103079;27;45229;-57
2021/07/25 03:53:42;;;;;;;;;5.25;5.00;;;;;21.32;49.81;100237.56;5103350;27;45394;-57
2021/07/25 03:56:07;;;;;;;;;2.50;2.50;;;;;21.32;49.99;100234.91;5103433;27;45396;-57
2021/07/25 03:58:32;;;;;;;;;4.75;4.75;;;;;21.27;49.69;100227.22;5102955;27;45324;-57
2021/07/25 04:00:58;;;;;;;;;2.25;2.25;;;;;21.26;50.25;100229.03;5103352;27;45332;-57
2021/07/25 04:03:23;;;;;;;;;5.00;4.00;;;;;21.23;49.83;100239.06;5103215;27;45489;-57
2021/07/25 04:05:48;;;;;;;;;8.50;4.00;;;;;21.22;50.31;100226.66;5101779;27;45311;-57
2021/07/25 04:08:15;;;;;;;;;5.00;4.25;;;;;21.15;50.40;100218.19;5102995;27;45921;-57
2021/07/25 04:10:42;;;;;;;;;5.00;4.00;;;;;21.16;49.83;100225.25;5103113;27;45295;-57
2021/07/25 04:13:12;;;;;;;;;5.00;3.00;;;;;21.08;50.94;100224.91;5081110;28;45268;-57
2021/07/25 04:15:39;;;;;;;;;3.00;3.00;;;;;21.06;50.23;100233.03;5094596;27;45520;-57
2021/07/25 04:18:05;;;;;;;;;3.25;3.00;;;;;21.02;50.22;100227.97;5102656;27;45347;-57
2021/07/25 04:20:30;;;;;;;;;6.00;4.75;;;;;20.98;51.03;100227.34;5102329;27;45413;-57
2021/07/25 04:22:55;;;;;;;;;4.50;4.00;;;;;20.96;50.67;100220.41;5081154;28;45441;-57
2021/07/25 04:25:21;;;;;;;;;3.00;2.00;;;;;20.91;50.52;100226.03;5094664;27;45201;-57
2021/07/25 04:27:46;;;;;;;;;3.00;3.00;;;;;20.88;51.19;100218.19;5102457;27;45299;-57
2021/07/25 04:30:12;;;;;;;;;2.50;2.50;;;;;20.88;51.31;100228.88;5102646;27;45403;-57
2021/07/25 04:32:38;;;;;;;;;2.75;2.25;;;;;20.81;51.17;100225.78;5102688;27;45426;-57
2021/07/25 04:35:04;;;;;;;;;3.25;3.25;;;;;20.86;50.72;100225.47;5102484;27;45220;-57
2021/07/25 04:37:30;;;;;;;;;2.25;2.25;;;;;20.78;51.21;100218.81;5102406;27;45327;-57
2021/07/25 04:39:56;;;;;;;;;4.00;4.00;;;;;20.77;51.05;100224.25;5102630;27;45380;-57
2021/07/25 04:42:24;;;;;;;;;3.50;3.50;;;;;20.75;50.96;100220.81;5102353;27;45426;-57
2021/07/25 04:44:55;;;;;;;;;4.50;3.00;;;;;20.75;51.48;100223.50;5102543;27;45398;-57
2021/07/25 04:47:32;;;;;;;;;3.00;3.00;;;;;20.73;51.44;100230.78;5102136;27;46297;-57
2021/07/25 04:50:06;;;;;;;;;3.25;3.25;;;;;20.69;51.54;100224.75;5101903;27;45362;-56
2021/07/25 04:52:37;;;;;;;;;4.25;4.00;;;;;20.71;51.70;100232.66;5102367;27;45318;-57
2021/07/25 04:55:06;;;;;;;;;3.00;2.00;;;;;20.72;51.75;100234.38;5102219;27;45533;-57
2021/07/25 04:57:40;;;;;;;;;4.50;2.00;;;;;20.70;51.34;100236.25;5101991;27;46352;-57
2021/07/25 05:00:06;;;;;;;;;4.25;3.75;;;;;20.69;51.42;100231.88;5102067;27;45260;-57
2021/07/25 05:02:34;;;;;;;;;4.00;3.50;;;;;20.68;51.89;100236.38;5102353;27;45410;-57
2021/07/25 05:05:02;;;;;;;;;6.25;5.75;;;;;20.62;51.50;100228.75;5081278;27;45328;-57
2021/07/25 05:07:35;;;;;;;;;5.50;5.25;;;;;20.67;51.96;100231.13;5090300;27;45265;-57
2021/07/25 05:10:00;;;;;;;;;6.25;3.75;;;;;20.68;51.74;100244.38;5101089;27;45293;-57
2021/07/25 05:12:29;;;;;;;;;5.25;3.25;;;;;20.67;51.61;100231.13;5102069;27;45488;-57
2021/07/25 05:15:04;;;;;;;;;4.00;2.75;;;;;20.66;51.66;100230.25;5083665;27;45550;-57
2021/07/25 05:17:36;;;;;;;;;2.00;2.00;;;;;20.63;52.28;100239.31;5082984;27;48301;-57
2021/07/25 05:20:08;;;;;;;;;2.25;2.25;;;;;20.59;52.24;100239.59;5101366;27;45331;-57
2021/07/25 05:22:54;;;;;;;;;6.00;3.25;;;;;20.57;52.43;100242.38;5101835;27;45391;-57
2021/07/25 05:25:22;;;;;;;;;1.50;1.50;;;;;20.53;52.33;100238.19;5101898;27;45465;-57
2021/07/25 05:27:49;;;;;;;;;3.00;3.00;;;;;20.54;52.10;100241.72;5101388;27;46998;-57
2021/07/25 05:30:18;;;;;;;;;4.00;4.00;;;;;20.52;52.22;100240.97;5101579;27;45204;-57
2021/07/25 05:32:43;;;;;;;;;5.75;3.00;;;;;20.53;52.24;100242.69;5101576;27;45324;-57
2021/07/25 05:35:10;;;;;;;;;4.00;3.50;;;;;20.53;52.57;100248.03;5101409;27;45430;-57
2021/07/25 05:37:36;;;;;;;;;5.25;3.25;;;;;20.42;52.47;100244.22;5101509;27;46172;-57
2021/07/25 05:40:03;;;;;;;;;3.75;3.50;;;;;20.45;53.00;100241.38;5101597;27;45291;-57
2021/07/25 05:42:28;;;;;;;;;5.00;3.25;;;;;20.46;52.82;100247.53;5101384;27;45280;-57
2021/07/25 05:44:53;;;;;;;;;4.50;4.00;;;;;20.45;52.82;100238.69;5101476;27;45418;-57
2021/07/25 05:47:18;;;;;;;;;5.00;4.25;;;;;20.46;52.54;100243.09;5101338;27;46486;-57
2021/07/25 05:49:44;;;;;;;;;3.00;3.00;;;;;20.48;52.51;100239.44;5101099;27;45224;-57
2021/07/25 05:52:09;;;;;;;;;4.75;3.50;;;;;20.46;52.74;100237.75;5101452;27;45304;-57
2021/07/25 05:54:35;;;;;;;;;4.00;4.00;;;;;20.45;52.78;100236.03;5101447;27;45628;-57
2021/07/25 05:57:00;;;;;;;;;4.50;4.00;;;;;20.47;52.99;100235.94;5101099;27;45327;-57
2021/07/25 05:59:25;;;;;;;;;5.75;5.00;;;;;20.45;52.91;100229.81;5101213;27;47560;-57
2021/07/25 06:01:52;;;;;;;;;4.00;3.50;;;;;20.44;52.84;100230.78;5101403;27;45473;-57
2021/07/25 06:04:17;;;;;;;;;3.00;3.00;;;;;20.43;53.21;100229.06;5083091;27;45526;-57
2021/07/25 06:06:42;;;;;;;;;5.75;4.00;;;;;20.45;53.45;100225.34;5100784;27;46226;-57
2021/07/25 06:09:08;;;;;;;;;5.50;4.50;;;;;20.48;53.15;100218.97;5101257;27;45395;-57
2021/07/25 06:11:34;;;;;;;;;4.50;4.50;;;;;20.52;53.34;100227.63;5101161;27;45524;-57
2021/07/25 06:13:59;;;;;;;;;6.75;3.75;;;;;20.50;53.21;100227.72;5101114;27;45302;-57
2021/07/25 06:16:25;;;;;;;;;5.50;5.00;;;;;20.50;53.55;100229.53;5100800;27;45264;-57
2021/07/25 06:18:50;;;;;;;;;5.25;5.00;;;;;20.45;53.04;100222.69;5100873;27;45306;-57
2021/07/25 06:21:17;;;;;;;;;5.25;5.00;;;;;20.52;53.59;100233.81;5100671;27;45250;-56
2021/07/25 06:23:43;;;;;;;;;7.00;5.25;;;;;20.56;52.85;100238.00;5101074;27;45289;-56
2021/07/25 06:26:09;;;;;;;;;5.25;4.75;;;;;20.51;53.41;100224.09;5100734;27;45308;-56
2021/07/25 06:28:34;;;;;;;;;6.75;4.75;;;;;20.56;53.51;100235.31;5099927;27;45319;-57
2021/07/25 06:30:59;;;;;;;;;6.75;6.00;;;;;20.55;53.32;100236.31;5100752;27;45226;-56
2021/07/25 06:33:28;;;;;;;;;6.75;5.00;;;;;20.60;52.99;100238.66;5101007;27;45374;-55
2021/07/25 06:35:54;;;;;;;;;4.50;3.50;;;;;20.62;52.94;100236.75;5100341;27;46012;-56
2021/07/25 06:38:19;;;;;;;;;7.25;4.00;;;;;20.65;53.43;100241.88;5100851;27;45323;-56
2021/07/25 06:40:49;;;;;;;;;5.00;3.75;;;;;20.65;53.29;100244.56;5100787;27;45361;-56
2021/07/25 06:43:15;;;;;;;;;4.50;4.50;;;;;20.69;53.33;100242.53;5100682;27;45235;-56
2021/07/25 06:45:40;;;;;;;;;4.75;4.00;;;;;20.68;53.67;100239.03;5100388;27;46556;-57
2021/07/25 06:48:18;;;;;;;;;5.25;5.25;;;;;20.72;53.22;100239.72;5100854;27;45399;-57
2021/07/25 06:50:43;;;;;;;;;5.75;3.50;;;;;20.72;53.28;100240.56;5065174;27;45510;-57
2021/07/25 06:53:08;;;;;;;;;10.25;9.25;;;;;20.77;53.52;100235.78;5100549;27;45292;-57
2021/07/25 06:55:33;;;;;;;;;5.00;5.00;;;;;20.78;53.56;100242.84;5081996;27;53336;-57
2021/07/25 06:57:59;;;;;;;;;5.50;5.50;;;;;20.84;53.69;100238.06;5100394;27;45323;-57
2021/07/25 07:00:26;;;;;;;;;7.50;6.25;;;;;20.86;53.24;100244.16;5100648;27;45321;-57
2021/07/25 07:02:56;;;;;;;;;6.00;6.00;;;;;20.90;53.34;100248.34;5100511;27;45406;-57
2021/07/25 07:05:26;;;;;;;;;7.50;6.50;;;;;20.90;53.66;100254.53;5099996;27;45936;-57
2021/07/25 07:07:56;;;;;;;;;4.75;4.25;;;;;20.92;53.09;100241.09;5085117;27;45251;-58
2021/07/25 07:10:28;;;;;;;;;6.25;5.25;;;;;20.93;53.34;100248.16;5100314;27;45382;-58
2021/07/25 07:12:55;;;;;;;;;5.75;5.75;;;;;20.98;53.04;100254.06;5099980;27;45255;-58
2021/07/25 07:15:22;;;;;;;;;6.00;5.00;;;;;20.98;53.15;100246.03;5100198;27;46324;-57
2021/07/25 07:17:49;;;;;;;;;7.50;7.25;;;;;21.03;53.67;100256.41;5100006;27;45330;-58
2021/07/25 07:20:14;;;;;;;;;6.25;6.00;;;;;21.02;53.03;100255.56;5099988;27;45312;-58
2021/07/25 07:22:40;;;;;;;;;5.50;4.00;;;;;21.00;53.56;100249.44;5100069;27;45290;-57
2021/07/25 07:25:07;;;;;;;;;6.25;6.25;;;;;21.05;53.54;100258.00;5100058;27;46048;-58
2021/07/25 07:27:33;;;;;;;;;7.00;6.00;;;;;21.06;53.70;100254.38;5098610;27;45373;-57
2021/07/25 07:29:59;;;;;;;;;7.50;6.50;;;;;21.07;53.18;100253.44;5100105;27;45476;-57
2021/07/25 07:32:25;;;;;;;;;7.25;6.25;;;;;21.11;53.52;100259.44;5078159;28;45552;-57
2021/07/25 07:34:50;;;;;;;;;8.25;6.75;;;;;21.08;53.29;100256.94;5090064;27;46323;-58
2021/07/25 07:37:16;;;;;;;;;8.25;6.25;;;;;21.12;53.67;100255.81;5099783;27;45360;-58
2021/07/25 07:39:43;;;;;;;;;9.75;9.00;;;;;21.14;53.29;100259.22;5101718;27;45314;-58
2021/07/25 07:42:11;;;;;;;;;8.00;7.00;;;;;21.17;53.52;100256.38;5084802;27;45497;-58
2021/07/25 07:44:37;;;;;;;;;7.00;7.00;;;;;21.21;52.86;100246.34;5081613;28;46404;-58
2021/07/25 07:47:03;;;;;;;;;13.50;12.50;;;;;21.21;53.34;100251.69;5100372;27;45316;-58
2021/07/25 07:49:28;;;;;;;;;11.25;8.50;;;;;21.22;53.40;100250.69;5103373;27;45340;-57
2021/07/25 07:51:54;;;;;;;;;11.00;6.75;;;;;21.28;53.43;100255.63;5102862;27;45261;-58
2021/07/25 07:54:19;;;;;;;;;8.00;6.75;;;;;21.25;53.66;100248.66;5103407;27;45621;-57
2021/07/25 07:56:45;;;;;;;;;9.00;8.25;;;;;21.26;53.34;100258.41;5103004;27;45327;-58
2021/07/25 07:59:10;;;;;;;;;9.25;8.75;;;;;21.26;53.37;100254.91;5085087;27;45415;-57
2021/07/25 08:01:36;;;;;;;;;8.50;8.25;;;;;21.27;53.34;100246.75;5067210;28;45520;-58
2021/07/25 08:04:02;;;;;;;;;8.25;7.00;;;;;21.33;52.82;100260.66;5082597;27;45982;-58
2021/07/25 08:06:27;;;;;;;;;10.50;10.00;;;;;21.35;53.39;100264.09;5085513;27;45326;-58
2021/07/25 08:08:52;;;;;;;;;9.00;8.00;;;;;21.38;52.76;100255.88;5103296;27;45314;-58
2021/07/25 08:11:18;;;;;;;;;8.50;7.50;;;;;21.36;53.21;100263.16;5102934;27;45227;-59
2021/07/25 08:13:43;;;;;;;;;9.00;7.25;;;;;21.39;52.72;100258.44;5102936;27;45287;-58
2021/07/25 08:16:09;;;;;;;;;7.00;7.00;;;;;21.38;52.98;100272.78;5102958;27;45295;-58
2021/07/25 08:18:35;;;;;;;;;8.75;7.75;;;;;21.38;53.39;100261.22;5084635;27;45370;-58
2021/07/25 08:21:01;;;;;;;;;8.25;7.25;;;;;21.37;52.91;100254.16;5101901;27;45401;-58
2021/07/25 08:23:26;;;;;;;;;8.50;8.50;;;;;21.38;53.11;100262.09;5102425;27;45373;-58
2021/07/25 08:25:52;;;;;;;;;9.50;7.75;;;;;21.37;53.08;100257.69;5102479;27;45271;-58
2021/07/25 08:28:17;;;;;;;;;10.00;10.00;;;;;21.37;53.20;100248.81;5080839;28;45319;-58
2021/07/25 08:30:42;;;;;;;;;10.00;8.75;;;;;21.41;52.50;100258.34;5098439;27;45435;-58
2021/07/25 08:33:08;;;;;;;;;10.75;9.25;;;;;21.44;52.96;100258.13;5102328;27;45359;-58
2021/07/25 08:35:33;;;;;;;;;12.75;11.00;;;;;21.45;52.99;100257.19;5102053;27;45247;-58
2021/07/25 08:37:58;;;;;;;;;8.75;8.25;;;;;21.47;52.92;100254.41;5102439;27;45292;-57
2021/07/25 08:40:24;;;;;;;;;11.75;9.75;;;;;21.51;52.62;100255.91;5102178;27;45494;-57
2021/07/25 08:43:02;;;;;;;;;8.50;8.25;;;;;21.53;52.98;100262.00;5102168;27;45444;-56
2021/07/25 08:45:29;;;;;;;;;7.25;6.25;;;;;21.52;52.52;100253.13;5101906;27;45446;-56
2021/07/25 08:48:03;;;;;;;;;7.75;6.50;;;;;21.54;53.21;100255.69;5102254;27;45335;-57
2021/07/25 08:50:29;;;;;;;;;10.25;9.50;;;;;21.60;52.67;100247.28;5100932;27;45312;-57
2021/07/25 08:52:55;;;;;;;;;9.00;8.25;;;;;21.63;52.61;100247.06;5102104;27;45411;-57
2021/07/25 08:55:21;;;;;;;;;8.25;8.25;;;;;21.64;53.16;100248.78;5101761;27;45232;-57
2021/07/25 08:57:49;;;;;;;;;8.75;7.50;;;;;21.68;52.74;100249.44;5080091;28;45276;-57
2021/07/25 09:00:18;;;;;;;;;10.50;9.00;;;;;21.73;52.49;100242.81;5101072;27;45251;-58
2021/07/25 09:02:44;;;;;;;;;11.75;8.50;;;;;21.71;52.66;100244.75;5101821;27;45426;-58
2021/07/25 09:05:10;;;;;;;;;10.25;7.75;;;;;21.76;53.29;100247.09;5101323;27;45358;-58
2021/07/25 09:07:39;;;;;;;;;12.00;9.00;;;;;21.79;52.92;100259.41;5101955;27;45286;-58
2021/07/25 09:10:07;;;;;;;;;10.25;9.00;;;;;21.83;53.32;100255.56;5083369;27;45344;-58
2021/07/25 09:12:34;;;;;;;;;10.00;9.25;;;;;21.82;53.05;100254.69;5083041;27;47244;-58
2021/07/25 09:15:04;;;;;;;;;11.25;10.00;;;;;21.82;53.20;100257.34;5101440;27;45355;-57
2021/07/25 09:17:29;;;;;;;;;12.75;10.50;;;;;21.82;53.41;100256.50;5101575;27;45178;-56
2021/07/25 09:20:15;;;;;;;;;14.75;14.25;;;;;21.84;52.76;100247.41;5101500;27;45233;-58
2021/07/25 09:22:50;;;;;;;;;8.00;8.00;;;;;21.86;53.20;100244.63;5101445;27;46228;-58
2021/07/25 09:25:26;;;;;;;;;10.00;9.75;;;;;21.88;53.39;100253.41;5101370;27;45362;-58
2021/07/25 09:27:58;;;;;;;;;10.25;10.25;;;;;21.86;52.99;100266.03;5101314;27;45509;-57
2021/07/25 09:30:30;;;;;;;;;10.25;9.25;;;;;21.86;53.38;100248.19;5101146;27;45396;-57
2021/07/25 09:32:57;;;;;;;;;9.25;8.00;;;;;21.85;53.13;100257.16;5101067;27;47599;-57
2021/07/25 09:35:34;;;;;;;;;12.75;9.25;;;;;21.82;53.44;100253.84;5101040;27;45305;-57
2021/07/25 09:38:02;;;;;;;;;10.00;8.00;;;;;21.80;53.25;100253.06;5101718;27;45482;-57
2021/07/25 09:40:30;;;;;;;;;12.75;11.25;;;;;21.79;53.32;100249.56;5101139;27;45381;-57
2021/07/25 09:43:20;;;;;;;;;11.25;10.00;;;;;21.78;53.26;100241.66;5101062;27;47492;-58
2021/07/25 09:45:55;;;;;;;;;9.50;8.25;;;;;21.79;53.42;100248.72;5101384;27;45402;-58
2021/07/25 09:48:22;;;;;;;;;11.75;10.50;;;;;21.82;53.69;100251.16;5101254;27;45358;-58
2021/07/25 09:50:49;;;;;;;;;9.00;7.50;;;;;21.76;53.78;100260.47;5100697;27;45508;-56
2021/07/25 09:53:15;;;;;;;;;10.50;9.50;;;;;21.79;53.87;100256.75;5091034;27;46602;-58
2021/07/25 09:55:41;;;;;;;;;7.50;7.50;;;;;21.81;53.67;100257.47;5100945;27;45200;-57
2021/07/25 09:58:07;;;;;;;;;10.00;8.25;;;;;21.77;53.52;100248.78;5100977;27;45285;-56
2021/07/25 10:00:43;;;;;;;;;10.25;8.25;;;;;21.79;53.40;100248.72;5101015;27;45243;-57
2021/07/25 10:03:18;;;;;;;;;7.50;6.00;;;;;21.79;53.66;100252.22;5080572;27;47240;-56
2021/07/25 10:05:44;;;;;;;;;6.25;4.00;;;;;21.78;53.97;100244.31;5100505;27;45335;-58
2021/07/25 10:08:21;;;;;;;;;8.50;8.00;;;;;21.75;54.04;100248.91;5100726;27;45358;-57
2021/07/25 10:10:51;;;;;;;;;6.50;5.50;;;;;21.73;54.49;100250.81;5100606;27;45473;-56
2021/07/25 10:13:22;;;;;;;;;11.00;9.00;;;;;21.77;53.82;100250.63;5100190;27;45351;-58
2021/07/25 10:15:50;;;;;;;;;6.50;4.50;;;;;21.72;54.46;100250.94;5082240;27;45628;-58
2021/07/25 10:18:15;;;;;;;;;6.50;5.25;;;;;21.75;53.97;100246.22;5100795;27;45321;-58
2021/07/25 10:20:42;;;;;;;;;8.75;7.00;;;;;21.75;54.21;100240.88;5100107;27;45376;-58
2021/07/25 10:23:07;;;;;;;;;7.25;7.25;;;;;21.75;54.52;100240.03;5100597;27;46285;-58
2021/07/25 10:25:35;;;;;;;;;7.00;7.00;;;;;21.80;54.19;100240.56;5100498;27;45244;-57
2021/07/25 10:28:01;;;;;;;;;8.25;7.00;;;;;21.82;53.85;100235.97;5100556;27;45379;-58
2021/07/25 10:30:27;;;;;;;;;8.50;6.75;;;;;21.84;53.60;100236.72;5081853;27;46043;-58
2021/07/25 10:32:56;;;;;;;;;9.25;8.75;;;;;21.87;54.29;100247.22;5100410;27;47169;-58
2021/07/25 10:35:21;;;;;;;;;8.25;8.00;;;;;21.86;54.15;100236.59;5100232;27;45520;-58
2021/07/25 10:37:49;;;;;;;;;8.75;7.75;;;;;21.89;53.54;100231.91;5100470;27;45194;-59
2021/07/25 10:40:16;;;;;;;;;9.00;9.00;;;;;22.01;54.40;100240.91;5100201;27;45381;-58
2021/07/25 10:42:49;;;;;;;;;7.00;7.00;;;;;22.08;53.90;100235.97;5100205;27;45460;-58
2021/07/25 10:45:14;;;;;;;;;8.25;8.25;;;;;22.14;53.80;100234.66;5100184;27;45227;-56
2021/07/25 10:47:42;;;;;;;;;7.00;7.00;;;;;22.20;54.24;100231.56;5100249;27;45331;-57
2021/07/25 10:50:18;;;;;;;;;9.50;9.00;;;;;22.35;53.83;100230.47;5099835;27;45434;-57
2021/07/25 10:52:52;;;;;;;;;10.50;9.75;;;;;22.51;54.16;100216.84;5099927;27;45375;-57
2021/07/25 10:55:35;;;;;;;;;11.50;9.75;;;;;22.71;54.03;100222.59;5099928;27;45322;-57
2021/07/25 10:58:03;;;;;;;;;11.00;8.75;;;;;22.98;53.76;100219.69;5100080;27;45374;-57
2021/07/25 11:00:39;;;;;;;;;12.00;11.00;;;;;23.27;54.01;100224.72;5100043;27;45260;-59
2021/07/25 11:03:05;;;;;;;;;10.00;9.00;;;;;23.53;54.23;100212.00;5099891;27;46933;-58
2021/07/25 11:05:30;;;;;;;;;8.00;8.00;;;;;23.83;53.93;100210.56;5099835;27;45236;-58
2021/07/25 11:07:58;;;;;;;;;11.25;9.25;;;;;24.08;53.75;100214.03;5100003;27;45769;-58
2021/07/25 11:10:31;;;;;;;;;12.50;11.50;;;;;24.33;53.50;100204.03;5081767;27;45282;-58
2021/07/25 11:12:57;;;;;;;;;14.25;12.75;;;;;24.49;53.17;100211.69;5099713;27;46178;-59
2021/07/25 11:15:28;;;;;;;;;9.25;9.00;;;;;24.65;53.45;100197.88;5102775;27;45287;-58
2021/07/25 11:17:55;;;;;;;;;8.25;6.50;;;;;24.78;52.97;100216.50;5103464;27;45485;-59
2021/07/25 11:20:33;;;;;;;;;7.25;6.75;;;;;25.01;52.99;100203.03;5084589;27;45619;-59
2021/07/25 11:22:59;;;;;;;;;9.25;9.25;;;;;25.21;52.19;100199.50;5084800;27;46199;-58
2021/07/25 11:25:35;;;;;;;;;47.50;40.50;;;;;25.34;52.76;100193.94;5103364;27;45327;-59